Time;durP1;ratioP1;P1;durP2;ratioP2;P2;SDS_P1;SDS_P2;PMS_P1;PMS_P2;Temp;Humidity;BMP_temperature;BMP_pressure;BME280_temperature;BME280_humidity;BME280_pressure;Samples;Min_cycle;Max_cycle;Signal;HPM_P1;HPM_P2
2021/05/20 00:00:02;;;;;;;0.58;0.55;;;;;;;;;;363557;145;858278;-61
2021/05/20 00:01:04;;;;;;;0.90;0.73;;;;;;;;;;362613;148;866198;-59
2021/05/20 00:02:05;;;;;;;1.46;0.61;;;;;;;;;;362762;145;857288;-60
2021/05/20 00:03:07;;;;;;;1.93;0.71;;;;;;;;;;362623;146;865070;-59
2021/05/20 00:04:09;;;;;;;3.14;0.71;;;;;;;;;;364740;146;857243;-59
2021/05/20 00:05:11;;;;;;;1.56;0.70;;;;;;;;;;364215;145;857136;-59
2021/05/20 00:06:13;;;;;;;1.24;0.80;;;;;;;;;;363382;148;858062;-59
2021/05/20 00:07:15;;;;;;;2.13;0.74;;;;;;;;;;362916;146;860401;-59
2021/05/20 00:08:16;;;;;;;0.94;0.71;;;;;;;;;;362454;145;859201;-59
2021/05/20 00:09:18;;;;;;;1.56;0.79;;;;;;;;;;362547;146;864998;-59
2021/05/20 00:10:21;;;;;;;1.04;0.60;;;;;;;;;;363612;145;857372;-59
2021/05/20 00:11:23;;;;;;;2.35;0.76;;;;;;;;;;362722;148;860075;-59
2021/05/20 00:12:24;;;;;;;2.29;0.72;;;;;;;;;;362644;146;860584;-58
2021/05/20 00:13:26;;;;;;;1.05;0.74;;;;;;;;;;362578;145;857177;-60
2021/05/20 00:14:28;;;;;;;1.73;0.88;;;;;;;;;;360801;148;857402;-59
2021/05/20 00:15:29;;;;;;;1.31;0.57;;;;;;;;;;359319;145;857400;-59
2021/05/20 00:16:32;;;;;;;3.86;0.82;;;;;;;;;;359535;148;857701;-61
2021/05/20 00:17:34;;;;;;;1.15;0.73;;;;;;;;;;359425;150;857787;-59
2021/05/20 00:18:36;;;;;;;3.44;0.75;;;;;;;;;;361318;145;858883;-59
2021/05/20 00:19:37;;;;;;;3.58;1.09;;;;;;;;;;361755;148;865103;-59
2021/05/20 00:20:40;;;;;;;2.33;1.33;;;;;;;;;;361508;146;857770;-59
2021/05/20 00:21:41;;;;;;;2.04;0.69;;;;;;;;;;359358;146;864961;-58
2021/05/20 00:22:43;;;;;;;0.90;0.79;;;;;;;;;;359278;147;866708;-58
2021/05/20 00:23:44;;;;;;;1.57;0.76;;;;;;;;;;361292;146;857423;-58
2021/05/20 00:24:46;;;;;;;3.56;0.87;;;;;;;;;;360707;148;859133;-58
2021/05/20 00:25:47;;;;;;;1.84;0.71;;;;;;;;;;362852;147;858166;-59
2021/05/20 00:26:49;;;;;;;3.09;0.56;;;;;;;;;;361647;145;859684;-59
2021/05/20 00:27:51;;;;;;;1.45;0.70;;;;;;;;;;362736;148;858708;-59
2021/05/20 00:28:52;;;;;;;1.46;0.80;;;;;;;;;;360112;145;860653;-58
2021/05/20 00:29:54;;;;;;;0.61;0.61;;;;;;;;;;359051;145;857750;-58
2021/05/20 00:30:56;;;;;;;1.00;0.77;;;;;;;;;;357974;148;857327;-59
2021/05/20 00:31:58;;;;;;;2.14;0.96;;;;;;;;;;363132;145;857294;-59
2021/05/20 00:32:59;;;;;;;0.86;0.79;;;;;;;;;;359469;148;857653;-59
2021/05/20 00:34:01;;;;;;;1.10;1.02;;;;;;;;;;358185;146;866294;-58
2021/05/20 00:35:03;;;;;;;0.68;0.65;;;;;;;;;;361452;145;858627;-58
2021/05/20 00:36:06;;;;;;;0.85;0.72;;;;;;;;;;359711;148;864857;-59
2021/05/20 00:37:08;;;;;;;1.09;0.65;;;;;;;;;;359661;146;859582;-59
2021/05/20 00:38:10;;;;;;;1.50;0.81;;;;;;;;;;360568;145;864901;-59
2021/05/20 00:39:11;;;;;;;2.39;0.85;;;;;;;;;;361359;147;864733;-59
2021/05/20 00:40:15;;;;;;;0.64;0.60;;;;;;;;;;361698;146;857384;-58
2021/05/20 00:41:16;;;;;;;2.87;0.73;;;;;;;;;;359315;148;857529;-59
2021/05/20 00:42:18;;;;;;;1.75;0.63;;;;;;;;;;360355;145;858021;-59
2021/05/20 00:43:19;;;;;;;1.04;0.94;;;;;;;;;;360267;145;857533;-59
2021/05/20 00:44:21;;;;;;;1.09;0.74;;;;;;;;;;359281;148;857432;-59
2021/05/20 00:45:24;;;;;;;2.85;0.80;;;;;;;;;;359970;146;857361;-59
2021/05/20 00:46:27;;;;;;;3.05;0.76;;;;;;;;;;359036;150;857314;-59
2021/05/20 00:47:30;;;;;;;0.79;0.78;;;;;;;;;;363826;146;865462;-60
2021/05/20 00:48:32;;;;;;;1.65;1.06;;;;;;;;;;362275;145;864757;-60
2021/05/20 00:49:35;;;;;;;2.27;0.96;;;;;;;;;;362252;147;860465;-59
2021/05/20 00:50:38;;;;;;;2.48;1.07;;;;;;;;;;363100;146;865085;-59
2021/05/20 00:51:41;;;;;;;1.39;0.89;;;;;;;;;;361556;147;857370;-59
2021/05/20 00:52:43;;;;;;;3.05;1.08;;;;;;;;;;359210;145;865655;-59
2021/05/20 00:53:46;;;;;;;1.81;0.97;;;;;;;;;;360399;145;859645;-59
2021/05/20 00:54:48;;;;;;;3.74;1.07;;;;;;;;;;362412;147;857393;-59
2021/05/20 00:55:50;;;;;;;1.32;1.00;;;;;;;;;;359639;146;858075;-59
2021/05/20 00:56:51;;;;;;;2.35;1.19;;;;;;;;;;360516;147;859184;-59
2021/05/20 00:57:53;;;;;;;3.10;1.14;;;;;;;;;;364453;147;857293;-59
2021/05/20 00:58:55;;;;;;;0.97;0.92;;;;;;;;;;359642;146;857151;-59
2021/05/20 00:59:58;;;;;;;3.31;1.14;;;;;;;;;;360111;147;857292;-59
2021/05/20 01:01:00;;;;;;;1.16;0.84;;;;;;;;;;359346;146;857180;-59
2021/05/20 01:02:01;;;;;;;2.14;0.99;;;;;;;;;;362499;146;866207;-59
2021/05/20 01:03:03;;;;;;;2.08;1.05;;;;;;;;;;359741;147;864923;-59
2021/05/20 01:04:05;;;;;;;1.85;1.09;;;;;;;;;;361686;146;864846;-59
2021/05/20 01:05:08;;;;;;;1.85;1.19;;;;;;;;;;362435;148;865063;-59
2021/05/20 01:06:10;;;;;;;2.75;1.31;;;;;;;;;;362582;147;858749;-59
2021/05/20 01:07:12;;;;;;;1.60;1.10;;;;;;;;;;360866;145;857365;-59
2021/05/20 01:08:14;;;;;;;3.24;1.34;;;;;;;;;;360008;147;859582;-58
2021/05/20 01:09:15;;;;;;;3.57;1.09;;;;;;;;;;359727;146;858898;-58
2021/05/20 01:10:17;;;;;;;1.51;1.21;;;;;;;;;;360873;145;865254;-58
2021/05/20 01:11:19;;;;;;;3.10;1.34;;;;;;;;;;359261;150;857697;-58
2021/05/20 01:12:20;;;;;;;4.09;0.99;;;;;;;;;;361627;145;857443;-58
2021/05/20 01:13:22;;;;;;;3.42;1.31;;;;;;;;;;360102;148;864562;-58
2021/05/20 01:14:23;;;;;;;3.26;1.44;;;;;;;;;;364853;147;857481;-59
2021/05/20 01:15:27;;;;;;;2.69;1.17;;;;;;;;;;362810;144;865036;-59
2021/05/20 01:16:29;;;;;;;2.04;1.26;;;;;;;;;;361721;148;857231;-59
2021/05/20 01:17:31;;;;;;;2.32;1.19;;;;;;;;;;362921;144;857709;-59
2021/05/20 01:18:32;;;;;;;1.61;1.15;;;;;;;;;;362855;145;864972;-60
2021/05/20 01:19:35;;;;;;;3.25;1.29;;;;;;;;;;364281;146;857336;-59
2021/05/20 01:20:38;;;;;;;1.89;1.17;;;;;;;;;;364321;144;865365;-59
2021/05/20 01:21:40;;;;;;;1.67;1.24;;;;;;;;;;362684;148;857160;-59
2021/05/20 01:22:42;;;;;;;3.43;1.27;;;;;;;;;;362576;144;859502;-59
2021/05/20 01:23:43;;;;;;;1.91;1.21;;;;;;;;;;363849;144;864453;-59
2021/05/20 01:24:45;;;;;;;2.21;1.24;;;;;;;;;;362996;148;857956;-59
2021/05/20 01:25:47;;;;;;;1.33;1.06;;;;;;;;;;364145;144;856420;-60
2021/05/20 01:26:49;;;;;;;1.69;1.19;;;;;;;;;;363011;148;856463;-59
2021/05/20 01:27:50;;;;;;;2.36;1.46;;;;;;;;;;364093;146;856129;-59
2021/05/20 01:28:52;;;;;;;5.08;1.30;;;;;;;;;;364005;146;856687;-59
2021/05/20 01:29:53;;;;;;;1.66;1.09;;;;;;;;;;366197;146;856351;-60
2021/05/20 01:32:53;;;;;;;3.49;1.06;;;;;;;11.66;75.76;98626.80;375050;142;878175;-58
2021/05/20 01:33:55;;;;;;;1.49;0.91;;;;;;;11.46;76.93;98630.06;364700;145;859750;-58
2021/05/20 01:34:57;;;;;;;1.06;0.96;;;;;;;11.49;76.94;98630.80;365960;147;864894;-59
2021/05/20 01:35:59;;;;;;;1.82;0.89;;;;;;;11.55;77.13;98625.41;365543;147;858592;-58
2021/05/20 01:37:03;;;;;;;0.93;0.71;;;;;;;11.48;76.73;98628.27;364197;144;858915;-58
2021/05/20 01:38:53;;;;;;;1.25;0.84;;;;;;;11.51;76.82;98629.00;361942;147;858538;-58
2021/05/20 01:39:18;;;;;;;3.46;0.80;;;;;;;11.63;76.78;98624.30;351657;145;859010;-60
2021/05/20 01:40:21;;;;;;;0.75;0.65;;;;;;;11.75;76.29;98626.52;362377;147;858113;-58
2021/05/20 01:41:22;;;;;;;2.65;0.74;;;;;;;11.90;76.17;98626.88;366031;144;860158;-58
2021/05/20 01:42:24;;;;;;;1.00;0.67;;;;;;;12.00;75.37;98628.28;367166;145;857880;-58
2021/05/20 01:43:26;;;;;;;2.21;0.74;;;;;;;11.99;75.46;98629.16;365814;146;864775;-58
2021/05/20 01:44:28;;;;;;;1.04;0.65;;;;;;;11.99;75.46;98629.16;363880;147;864472;-58
2021/05/20 01:45:31;;;;;;;2.11;0.76;;;;;;;11.90;74.40;98632.90;363060;145;858926;-59
2021/05/20 01:46:33;;;;;;;4.03;0.72;;;;;;;12.02;74.30;98621.30;363733;148;865655;-60
2021/05/20 01:47:36;;;;;;;1.24;0.77;;;;;;;11.92;74.20;98625.08;365910;145;857271;-60
2021/05/20 01:48:40;;;;;;;1.09;0.64;;;;;;;11.94;74.34;98626.70;360744;147;866567;-59
2021/05/20 01:49:49;;;;;;;1.22;0.58;;;;;;;12.04;73.94;98623.82;365557;145;857308;-59
2021/05/20 01:50:52;;;;;;;1.16;0.68;;;;;;;12.17;74.44;98622.48;363182;145;864853;-59
2021/05/20 01:51:53;;;;;;;1.05;0.68;;;;;;;12.30;74.16;98625.49;359717;149;859534;-59
2021/05/20 01:52:55;;;;;;;4.16;0.70;;;;;;;12.18;73.87;98624.17;359352;147;857262;-59
2021/05/20 01:53:57;;;;;;;2.86;0.79;;;;;;;12.35;74.73;98620.15;361105;148;865046;-59
2021/05/20 01:54:59;;;;;;;4.38;0.80;;;;;;;12.52;74.36;98630.75;359910;148;865294;-59
2021/05/20 01:56:01;;;;;;;1.23;0.57;;;;;;;12.65;73.90;98632.89;358967;147;866547;-59
2021/05/20 01:57:03;;;;;;;0.95;0.64;;;;;;;;;;359471;148;858895;-59
2021/05/20 01:58:05;;;;;;;2.07;0.83;;;;;;;;;;355590;147;857438;-59
2021/05/20 01:59:07;;;;;;;1.88;0.86;;;;;;;;;;359407;148;857339;-58
2021/05/20 02:00:09;;;;;;;1.90;0.76;;;;;;;;;;356370;148;857280;-58
2021/05/20 02:01:11;;;;;;;1.97;0.94;;;;;;;;;;357971;148;857252;-59
2021/05/20 02:02:12;;;;;;;1.01;0.75;;;;;;;;;;359239;149;857910;-60
2021/05/20 02:03:14;;;;;;;3.71;1.05;;;;;;;;;;359116;148;857491;-59
2021/05/20 02:04:16;;;;;;;2.09;1.32;;;;;;;;;;358610;147;857449;-59
2021/05/20 02:05:17;;;;;;;1.51;0.90;;;;;;;;;;357838;150;865044;-59
2021/05/20 02:06:20;;;;;;;2.95;1.23;;;;;;;;;;359913;147;857657;-58
2021/05/20 02:07:21;;;;;;;1.36;1.09;;;;;;;;;;360856;148;864818;-58
2021/05/20 02:08:24;;;;;;;3.49;1.44;;;;;;;;;;359309;150;865978;-58
2021/05/20 02:09:25;;;;;;;2.43;1.25;;;;;;;;;;359504;147;858865;-58
2021/05/20 02:10:28;;;;;;;2.27;1.27;;;;;;;;;;359285;150;857302;-59
2021/05/20 02:11:29;;;;;;;2.94;1.24;;;;;;;;;;359167;147;857331;-58
2021/05/20 02:12:31;;;;;;;3.64;1.39;;;;;;;;;;359095;147;858516;-59
2021/05/20 02:13:33;;;;;;;2.68;1.40;;;;;;;;;;360965;147;858761;-60
2021/05/20 02:14:34;;;;;;;3.51;1.50;;;;;;;;;;359809;147;857219;-59
2021/05/20 02:15:37;;;;;;;2.01;1.44;;;;;;;;;;360612;149;857362;-59
2021/05/20 02:16:39;;;;;;;2.17;1.24;;;;;;;;;;358569;147;857393;-59
2021/05/20 02:17:40;;;;;;;5.60;1.64;;;;;;;;;;358922;148;860571;-59
2021/05/20 02:18:42;;;;;;;3.61;1.37;;;;;;;;;;359527;149;865407;-59
2021/05/20 02:19:44;;;;;;;2.44;1.39;;;;;;;;;;361966;147;859644;-58
2021/05/20 02:20:47;;;;;;;5.03;2.12;;;;;;;;;;359446;150;865687;-60
2021/05/20 02:21:48;;;;;;;3.87;1.49;;;;;;;;;;359763;147;859033;-59
2021/05/20 02:22:51;;;;;;;2.77;1.42;;;;;;;;;;360066;147;866237;-59
2021/05/20 02:23:52;;;;;;;4.71;1.34;;;;;;;;;;360184;147;858967;-59
2021/05/20 02:24:54;;;;;;;3.14;1.50;;;;;;;;;;360854;148;858957;-59
2021/05/20 02:25:55;;;;;;;2.03;1.38;;;;;;;;;;359022;147;857526;-59
2021/05/20 02:26:57;;;;;;;2.86;1.32;;;;;;;;;;362759;147;860711;-59
2021/05/20 02:27:59;;;;;;;1.94;1.25;;;;;;;;;;360947;147;865680;-61
2021/05/20 02:29:00;;;;;;;3.38;1.46;;;;;;;;;;356339;150;859482;-57
2021/05/20 02:30:03;;;;;;;2.82;1.53;;;;;;;;;;358319;148;865207;-58
2021/05/20 02:31:05;;;;;;;5.06;1.35;;;;;;;;;;352542;151;866659;-59
2021/05/20 02:32:06;;;;;;;4.43;1.61;;;;;;;;;;359431;149;864500;-58
2021/05/20 02:33:08;;;;;;;2.36;1.30;;;;;;;;;;359836;147;864929;-59
2021/05/20 02:34:09;;;;;;;3.83;1.41;;;;;;;;;;359864;148;857371;-58
2021/05/20 02:35:12;;;;;;;2.85;1.23;;;;;;;;;;358505;149;857249;-59
2021/05/20 02:36:15;;;;;;;2.75;1.57;;;;;;;;;;358571;147;859416;-58
2021/05/20 02:37:16;;;;;;;4.06;1.43;;;;;;;;;;360632;147;859065;-59
2021/05/20 02:38:18;;;;;;;2.26;1.01;;;;;;;;;;362320;147;864966;-59
2021/05/20 02:39:21;;;;;;;3.37;1.52;;;;;;;;;;358462;147;860419;-59
2021/05/20 02:40:23;;;;;;;1.76;1.30;;;;;;;;;;359881;148;856679;-58
2021/05/20 02:41:24;;;;;;;1.72;1.09;;;;;;;;;;359622;147;857148;-59
2021/05/20 02:42:26;;;;;;;2.14;1.40;;;;;;;;;;360972;148;858857;-59
2021/05/20 02:43:28;;;;;;;3.36;1.77;;;;;;;;;;360534;147;864815;-57
2021/05/20 02:44:29;;;;;;;1.59;1.34;;;;;;;;;;359658;148;864469;-59
2021/05/20 02:45:31;;;;;;;1.64;1.29;;;;;;;;;;359229;150;857171;-57
2021/05/20 02:46:33;;;;;;;3.93;1.46;;;;;;;;;;358909;148;857240;-60
2021/05/20 02:47:35;;;;;;;2.64;1.44;;;;;;;;;;358513;147;857364;-58
2021/05/20 02:48:36;;;;;;;3.67;1.53;;;;;;;;;;359454;149;864880;-58
2021/05/20 02:49:38;;;;;;;1.35;1.25;;;;;;;;;;359623;148;857751;-59
2021/05/20 02:50:41;;;;;;;2.12;1.05;;;;;;;;;;358643;147;857338;-59
2021/05/20 02:51:43;;;;;;;2.74;1.14;;;;;;;;;;350600;153;857817;-60
2021/05/20 02:52:45;;;;;;;1.39;1.29;;;;;;;;;;357057;148;864999;-60
2021/05/20 02:53:47;;;;;;;2.21;1.24;;;;;;;;;;361999;148;859657;-61
2021/05/20 02:54:49;;;;;;;4.99;1.31;;;;;;;;;;361644;147;857629;-60
2021/05/20 02:55:50;;;;;;;5.91;1.16;;;;;;;;;;360602;148;857676;-59
2021/05/20 02:56:52;;;;;;;6.92;1.08;;;;;;;;;;360689;148;857703;-60
2021/05/20 02:57:56;;;;;;;2.48;1.45;;;;;;;;;;363144;148;864738;-60
2021/05/20 02:58:57;;;;;;;1.87;1.07;;;;;;;;;;352615;151;857316;-60
2021/05/20 02:59:59;;;;;;;4.51;1.55;;;;;;;;;;359124;150;857511;-59
2021/05/20 03:01:01;;;;;;;3.23;1.47;;;;;;;;;;358682;148;857512;-58
2021/05/20 03:02:07;;;;;;;1.29;1.14;;;;;;;;;;358144;147;865372;-60
2021/05/20 03:03:08;;;;;;;2.15;1.29;;;;;;;;;;361892;147;858517;-59
2021/05/20 03:04:10;;;;;;;1.96;1.03;;;;;;;;;;358342;147;857849;-59
2021/05/20 03:05:12;;;;;;;2.15;1.37;;;;;;;;;;359156;149;864864;-61
2021/05/20 03:06:14;;;;;;;2.35;1.23;;;;;;;;;;362802;147;857316;-59
2021/05/20 03:07:15;;;;;;;3.12;1.36;;;;;;;;;;359589;147;858718;-59
2021/05/20 03:08:17;;;;;;;3.35;1.41;;;;;;;;;;361640;148;859570;-59
2021/05/20 03:09:19;;;;;;;1.98;1.20;;;;;;;;;;360440;148;859432;-59
2021/05/20 03:10:22;;;;;;;6.02;1.14;;;;;;;;;;358732;147;858832;-58
2021/05/20 03:11:25;;;;;;;3.54;1.23;;;;;;;;;;359347;147;857990;-61
2021/05/20 03:12:26;;;;;;;3.08;1.20;;;;;;;;;;359979;147;866647;-59
2021/05/20 03:13:28;;;;;;;1.49;1.30;;;;;;;;;;360317;147;857804;-59
2021/05/20 03:14:29;;;;;;;3.74;1.13;;;;;;;;;;365121;147;857390;-59
2021/05/20 03:15:31;;;;;;;2.01;1.16;;;;;;;;;;360198;147;864441;-58
2021/05/20 03:16:34;;;;;;;3.49;1.11;;;;;;;;;;356509;148;857182;-57
2021/05/20 03:17:36;;;;;;;1.84;0.95;;;;;;;;;;354974;151;857912;-57
2021/05/20 03:18:37;;;;;;;2.04;1.09;;;;;;;;;;358736;148;857488;-58
2021/05/20 03:19:39;;;;;;;2.95;1.01;;;;;;;;;;358876;149;865743;-59
2021/05/20 03:20:42;;;;;;;1.60;1.04;;;;;;;;;;360482;148;867101;-58
2021/05/20 03:21:44;;;;;;;3.59;1.13;;;;;;;;;;357793;148;857430;-58
2021/05/20 03:22:46;;;;;;;2.16;1.24;;;;;;;;;;361661;148;859397;-57
2021/05/20 03:23:48;;;;;;;1.83;1.02;;;;;;;;;;360399;148;866088;-59
2021/05/20 03:24:50;;;;;;;1.78;0.93;;;;;;;;;;359377;147;857210;-58
2021/05/20 03:25:52;;;;;;;2.30;1.24;;;;;;;;;;360354;147;862420;-59
2021/05/20 03:26:53;;;;;;;5.46;1.13;;;;;;;;;;357336;147;859235;-58
2021/05/20 03:27:55;;;;;;;2.43;1.35;;;;;;;;;;360136;148;866323;-60
2021/05/20 03:28:57;;;;;;;1.46;1.15;;;;;;;;;;359168;148;859449;-59
2021/05/20 03:29:58;;;;;;;2.04;1.22;;;;;;;;;;359518;147;858168;-58
2021/05/20 03:31:00;;;;;;;1.49;1.11;;;;;;;;;;356519;149;866281;-58
2021/05/20 03:32:02;;;;;;;1.70;1.00;;;;;;;;;;362782;147;857240;-59
2021/05/20 03:33:04;;;;;;;3.23;1.13;;;;;;;;;;361167;147;858955;-58
2021/05/20 03:34:05;;;;;;;1.27;1.04;;;;;;;;;;365630;147;859453;-59
2021/05/20 03:35:08;;;;;;;1.31;1.02;;;;;;;;;;359620;147;866714;-59
2021/05/20 03:36:10;;;;;;;1.28;0.95;;;;;;;;;;358920;148;859395;-59
2021/05/20 03:53:07;;;;;;;2.16;0.97;;;;;;;11.69;72.74;98609.40;371071;142;881351;-60
2021/05/20 03:54:08;;;;;;;4.01;0.80;;;;;;;11.46;72.71;98627.47;366220;146;857155;-60
2021/05/20 03:55:10;;;;;;;3.99;0.76;;;;;;;11.63;73.52;98627.76;361073;147;864960;-59
2021/05/20 03:56:13;;;;;;;0.82;0.64;;;;;;;11.51;73.38;98626.41;363915;146;864529;-59
2021/05/20 03:57:14;;;;;;;3.61;0.70;;;;;;;11.73;73.11;98628.31;363404;147;864979;-59
2021/05/20 03:58:16;;;;;;;1.26;0.80;;;;;;;11.88;72.28;98639.89;363079;146;865000;-61
2021/05/20 03:59:18;;;;;;;1.59;0.80;;;;;;;11.65;73.12;98628.55;365151;147;865034;-59
2021/05/20 04:00:21;;;;;;;1.05;0.70;;;;;;;11.65;73.12;98628.55;363233;147;865927;-58
2021/05/20 04:01:22;;;;;;;2.21;0.60;;;;;;;;;;362736;146;864139;-59
2021/05/20 04:02:24;;;;;;;1.56;0.68;;;;;;;;;;363886;148;857445;-59
2021/05/20 04:03:29;;;;;;;0.74;0.60;;;;;;;;;;364620;147;859016;-59
2021/05/20 04:04:31;;;;;;;2.10;0.79;;;;;;;;;;364280;146;857350;-59
2021/05/20 04:05:32;;;;;;;2.57;0.69;;;;;;;;;;361523;147;857345;-59
2021/05/20 04:06:36;;;;;;;2.25;0.59;;;;;;;;;;361307;147;858967;-59
2021/05/20 04:07:37;;;;;;;1.50;0.85;;;;;;;;;;361573;147;857156;-58
2021/05/20 04:08:39;;;;;;;2.57;0.87;;;;;;;;;;361949;146;860025;-59
2021/05/20 04:09:40;;;;;;;5.93;1.06;;;;;;;;;;361587;146;865989;-59
2021/05/20 04:10:43;;;;;;;0.98;0.78;;;;;;;;;;359696;148;859236;-58
2021/05/20 04:11:44;;;;;;;1.18;0.79;;;;;;;;;;355065;150;859974;-59
2021/05/20 04:12:46;;;;;;;2.66;0.97;;;;;;;;;;354701;147;865778;-58
2021/05/20 04:13:47;;;;;;;1.38;1.03;;;;;;;;;;362415;147;858073;-60
2021/05/20 04:14:49;;;;;;;2.01;1.01;;;;;;;;;;360454;147;857377;-62
2021/05/20 04:15:50;;;;;;;1.29;0.92;;;;;;;;;;364498;146;859733;-59
2021/05/20 04:16:52;;;;;;;2.79;1.09;;;;;;;;;;363989;147;860110;-61
2021/05/20 04:17:55;;;;;;;2.33;1.05;;;;;;;;;;361711;147;858992;-58
2021/05/20 04:18:58;;;;;;;1.12;0.98;;;;;;;;;;356515;148;858705;-58
2021/05/20 04:19:59;;;;;;;1.14;0.86;;;;;;;;;;356576;149;857831;-59
2021/05/20 04:21:01;;;;;;;6.21;1.21;;;;;;;;;;354769;149;858275;-57
2021/05/20 04:22:03;;;;;;;2.48;1.13;;;;;;;;;;363553;146;858818;-59
2021/05/20 04:23:04;;;;;;;1.94;1.14;;;;;;;;;;362405;147;859691;-59
2021/05/20 04:24:07;;;;;;;5.92;1.18;;;;;;;;;;362414;146;858654;-59
2021/05/20 04:25:09;;;;;;;2.73;0.87;;;;;;;;;;362596;147;868222;-57
2021/05/20 04:26:11;;;;;;;4.59;0.98;;;;;;;;;;361559;146;858737;-58
2021/05/20 04:27:12;;;;;;;2.89;1.31;;;;;;;;;;360503;146;865398;-60
2021/05/20 04:28:14;;;;;;;2.06;1.07;;;;;;;;;;361981;146;858105;-59
2021/05/20 04:29:16;;;;;;;3.26;1.04;;;;;;;;;;362344;146;865059;-59
2021/05/20 04:30:18;;;;;;;3.10;1.19;;;;;;;;;;362361;146;865042;-58
2021/05/20 04:31:20;;;;;;;2.33;0.89;;;;;;;;;;362527;146;857878;-59
2021/05/20 04:32:21;;;;;;;1.37;0.80;;;;;;;;;;362108;146;859543;-59
2021/05/20 04:33:23;;;;;;;3.76;1.13;;;;;;;;;;362100;146;865540;-59
2021/05/20 04:34:25;;;;;;;5.40;1.32;;;;;;;;;;362206;146;857250;-59
2021/05/20 04:35:26;;;;;;;2.54;0.96;;;;;;;;;;362252;146;857366;-60
2021/05/20 04:36:28;;;;;;;2.05;1.21;;;;;;;;;;362295;146;857350;-59
2021/05/20 04:37:30;;;;;;;1.97;1.03;;;;;;;;;;363598;146;857271;-62
2021/05/20 04:38:31;;;;;;;3.74;1.61;;;;;;;;;;363485;146;857355;-59
2021/05/20 04:39:33;;;;;;;3.01;0.99;;;;;;;;;;361569;146;857356;-60
2021/05/20 04:40:36;;;;;;;5.16;1.01;;;;;;;;;;361897;146;863240;-59
2021/05/20 04:41:37;;;;;;;2.74;1.04;;;;;;;;;;361562;146;856152;-60
2021/05/20 04:42:39;;;;;;;1.10;1.00;;;;;;;;;;363959;146;856440;-60
2021/05/20 04:43:40;;;;;;;1.53;0.83;;;;;;;;;;362263;146;863766;-59
2021/05/20 04:44:42;;;;;;;1.86;1.08;;;;;;;;;;362684;146;856798;-60
2021/05/20 04:45:46;;;;;;;3.94;1.08;;;;;;;;;;363996;147;856399;-60
2021/05/20 04:46:49;;;;;;;1.23;0.99;;;;;;;;;;362059;146;856211;-61
2021/05/20 04:47:51;;;;;;;1.13;0.94;;;;;;;;;;363649;147;856197;-61
2021/05/20 04:48:52;;;;;;;2.56;1.19;;;;;;;;;;361786;146;862554;-60
2021/05/20 04:49:54;;;;;;;2.86;1.09;;;;;;;;;;361430;146;856790;-60
2021/05/20 04:50:56;;;;;;;3.17;0.90;;;;;;;;;;362169;146;863954;-59
2021/05/20 04:51:58;;;;;;;2.63;1.31;;;;;;;;;;361437;146;863909;-59
2021/05/20 04:52:59;;;;;;;1.56;1.08;;;;;;;;;;359409;146;856219;-60
2021/05/20 04:54:01;;;;;;;2.64;1.24;;;;;;;;;;355852;147;864325;-59
2021/05/20 04:55:03;;;;;;;0.81;0.74;;;;;;;;;;355968;147;856890;-60
2021/05/20 04:56:05;;;;;;;3.01;0.97;;;;;;;;;;356459;147;863653;-59
2021/05/20 04:57:06;;;;;;;2.03;0.77;;;;;;;;;;358429;147;857253;-59
2021/05/20 04:58:08;;;;;;;2.28;1.23;;;;;;;;;;355881;147;863853;-60
2021/05/20 04:59:09;;;;;;;1.36;0.84;;;;;;;;;;354036;149;857029;-60
2021/05/20 05:00:13;;;;;;;2.82;1.11;;;;;;;;;;353753;147;856573;-58
2021/05/20 05:01:14;;;;;;;1.19;0.89;;;;;;;;;;342130;153;859250;-58
2021/05/20 05:02:16;;;;;;;1.47;0.91;;;;;;;;;;345527;153;860314;-60
2021/05/20 05:03:17;;;;;;;3.69;1.08;;;;;;;;;;346763;153;861086;-61
2021/05/20 05:04:19;;;;;;;4.19;0.96;;;;;;;;;;343934;155;864897;-59
2021/05/20 05:05:20;;;;;;;3.22;0.84;;;;;;;;;;350081;149;856530;-59
2021/05/20 05:06:23;;;;;;;4.03;1.23;;;;;;;;;;351356;152;856486;-61
2021/05/20 05:07:24;;;;;;;2.44;0.91;;;;;;;;;;350730;152;856199;-59
2021/05/20 05:08:26;;;;;;;3.23;0.71;;;;;;;;;;349257;150;856237;-59
2021/05/20 05:09:27;;;;;;;2.80;0.85;;;;;;;;;;350749;149;856433;-57
2021/05/20 05:10:30;;;;;;;2.58;1.23;;;;;;;;;;350095;149;856200;-59
2021/05/20 05:11:31;;;;;;;2.54;1.19;;;;;;;;;;350556;152;858753;-59
2021/05/20 05:12:33;;;;;;;4.29;1.19;;;;;;;;;;351035;152;856461;-60
2021/05/20 05:13:34;;;;;;;3.35;0.86;;;;;;;;;;351812;152;856182;-58
2021/05/20 05:14:36;;;;;;;2.69;0.79;;;;;;;;;;350554;152;856345;-59
2021/05/20 05:15:38;;;;;;;1.13;0.89;;;;;;;;;;347664;152;856167;-59
2021/05/20 05:16:40;;;;;;;1.08;0.87;;;;;;;;;;356283;150;856581;-61
2021/05/20 05:17:41;;;;;;;1.46;0.97;;;;;;;;;;348807;152;856405;-59
2021/05/20 05:18:43;;;;;;;5.11;0.95;;;;;;;;;;350352;152;863809;-60
2021/05/20 05:19:44;;;;;;;2.44;0.79;;;;;;;;;;348068;152;863322;-60
2021/05/20 05:20:46;;;;;;;1.79;1.00;;;;;;;;;;350748;149;864565;-60
2021/05/20 05:21:48;;;;;;;2.45;1.17;;;;;;;;;;349645;152;864017;-60
2021/05/20 05:22:49;;;;;;;1.71;0.90;;;;;;;;;;346771;152;856525;-60
2021/05/20 05:23:53;;;;;;;3.41;0.91;;;;;;;;;;348909;152;857511;-59
2021/05/20 05:24:55;;;;;;;1.96;1.02;;;;;;;;;;342897;155;863867;-60
2021/05/20 05:25:57;;;;;;;1.52;0.97;;;;;;;;;;341353;156;856695;-60
2021/05/20 05:26:59;;;;;;;2.53;0.88;;;;;;;;;;348153;152;856176;-61
2021/05/20 05:28:00;;;;;;;1.00;0.86;;;;;;;;;;347650;152;864246;-61
2021/05/20 05:29:02;;;;;;;3.64;1.51;;;;;;;;;;345580;152;856404;-61
2021/05/20 05:30:04;;;;;;;1.51;0.97;;;;;;;;;;348529;152;856535;-60
2021/05/20 05:31:07;;;;;;;1.31;0.75;;;;;;;;;;346848;152;863594;-59
2021/05/20 05:32:09;;;;;;;3.89;1.00;;;;;;;;;;345219;154;856194;-59
2021/05/20 05:33:10;;;;;;;3.72;0.94;;;;;;;;;;346870;155;856186;-59
2021/05/20 05:34:12;;;;;;;1.81;1.21;;;;;;;;;;345405;152;856317;-61
2021/05/20 05:35:13;;;;;;;1.05;0.94;;;;;;;;;;348620;152;856931;-61
2021/05/20 05:36:15;;;;;;;2.05;0.99;;;;;;;;;;348511;149;857227;-60
2021/05/20 05:37:17;;;;;;;2.71;1.16;;;;;;;;;;349802;150;856502;-60
2021/05/20 05:38:19;;;;;;;4.81;1.09;;;;;;;;;;350183;152;856972;-60
2021/05/20 05:39:20;;;;;;;3.24;0.87;;;;;;;;;;347249;150;856423;-60
2021/05/20 05:40:22;;;;;;;3.39;1.04;;;;;;;;;;350027;152;856317;-60
2021/05/20 05:41:23;;;;;;;3.07;1.17;;;;;;;;;;351872;152;863530;-59
2021/05/20 05:42:25;;;;;;;3.10;1.30;;;;;;;;;;348640;150;863357;-59
2021/05/20 05:43:26;;;;;;;1.46;1.16;;;;;;;;;;350140;150;856167;-61
2021/05/20 05:44:28;;;;;;;2.14;0.98;;;;;;;;;;352954;152;856275;-61
2021/05/20 05:45:30;;;;;;;1.68;1.19;;;;;;;;;;350101;150;856859;-59
2021/05/20 05:46:31;;;;;;;6.71;1.38;;;;;;;;;;347555;150;856243;-62
2021/05/20 05:47:33;;;;;;;2.91;1.38;;;;;;;;;;346378;155;856261;-62
2021/05/20 05:48:35;;;;;;;2.74;1.11;;;;;;;;;;350438;150;856430;-60
2021/05/20 05:49:43;;;;;;;2.08;1.29;;;;;;;;;;350236;150;856189;-60
2021/05/20 05:50:44;;;;;;;3.66;1.72;;;;;;;;;;350746;150;856463;-60
2021/05/20 05:51:50;;;;;;;2.81;1.17;;;;;;;;;;351566;150;856207;-61
2021/05/20 05:52:50;;;;;;;3.98;1.34;;;;;;;;;;353231;150;863855;-62
2021/05/20 05:53:52;;;;;;;2.64;1.15;;;;;;;;;;348969;152;856402;-60
2021/05/20 05:54:53;;;;;;;2.41;1.37;;;;;;;;;;363524;146;856177;-61
2021/05/20 05:55:55;;;;;;;3.90;1.34;;;;;;;;;;361754;146;863227;-61
2021/05/20 05:56:57;;;;;;;3.85;1.27;;;;;;;;;;362950;146;856321;-60
2021/05/20 05:57:59;;;;;;;1.84;1.26;;;;;;;;;;364280;146;856781;-60
2021/05/20 05:59:00;;;;;;;3.02;1.22;;;;;;;;;;362213;147;856384;-60
2021/05/20 06:00:03;;;;;;;2.12;0.99;;;;;;;;;;364713;146;864508;-60
2021/05/20 06:01:05;;;;;;;3.77;1.45;;;;;;;;;;362155;147;863816;-59
2021/05/20 06:02:06;;;;;;;1.56;1.05;;;;;;;;;;363731;147;856558;-60
2021/05/20 06:03:08;;;;;;;1.98;0.89;;;;;;;;;;361983;146;856535;-59
2021/05/20 06:04:10;;;;;;;2.34;1.08;;;;;;;;;;360874;147;856608;-61
2021/05/20 06:05:11;;;;;;;2.32;1.16;;;;;;;;;;355371;150;856316;-60
2021/05/20 06:06:15;;;;;;;1.66;1.12;;;;;;;;;;358148;147;863855;-61
2021/05/20 06:07:16;;;;;;;1.72;1.12;;;;;;;;;;365459;147;863904;-61
2021/05/20 06:08:18;;;;;;;2.02;1.13;;;;;;;;;;362771;146;857001;-59
2021/05/20 06:09:19;;;;;;;4.16;1.12;;;;;;;;;;365109;146;856502;-59
2021/05/20 06:10:23;;;;;;;4.85;1.83;;;;;;;;;;359420;150;856303;-59
2021/05/20 06:11:24;;;;;;;1.73;0.98;;;;;;;;;;361406;146;856394;-61
2021/05/20 06:12:26;;;;;;;2.94;1.09;;;;;;;;;;360255;147;856085;-61
2021/05/20 06:13:27;;;;;;;2.44;1.32;;;;;;;;;;361443;147;863331;-62
2021/05/20 06:14:29;;;;;;;3.63;1.21;;;;;;;;;;363144;146;856246;-62